Time;durP1;ratioP1;P1;durP2;ratioP2;P2;SDS_P1;SDS_P2;PMS_P1;PMS_P2;Temp;Humidity;BMP_temperature;BMP_pressure;BME280_temperature;BME280_humidity;BME280_pressure;Samples;Min_cycle;Max_cycle;Signal;HPM_P1;HPM_P2
2023/02/02 19:09:15;;;;;;;31.08;27.80;;;3.90;99.90;;;;;;4852226;29;20518;-44
2023/02/02 19:11:47;;;;;;;37.60;33.50;;;3.90;99.90;;;;;;4856814;29;20186;-46
2023/02/02 19:14:35;;;;;;;31.95;28.77;;;3.90;99.90;;;;;;4857875;29;20176;-46
2023/02/02 19:17:13;;;;;;;29.48;26.58;;;3.80;99.90;;;;;;4858196;29;20206;-48
2023/02/02 19:19:41;;;;;;;30.92;27.80;;;3.80;99.90;;;;;;4857415;29;20194;-45
2023/02/02 19:22:18;;;;;;;31.30;28.30;;;3.70;99.90;;;;;;4858143;29;20187;-48
2023/02/02 19:24:44;;;;;;;24.55;22.25;;;3.70;99.90;;;;;;4857541;29;20215;-46
2023/02/02 19:27:22;;;;;;;27.60;24.20;;;3.60;99.90;;;;;;4858066;29;20209;-44
2023/02/02 19:29:50;;;;;;;23.20;21.30;;;3.60;99.90;;;;;;4857530;29;20433;-46
2023/02/02 19:32:22;;;;;;;29.55;26.45;;;3.60;99.90;;;;;;4857876;29;20232;-49
2023/02/02 19:34:50;;;;;;;30.50;27.58;;;3.50;99.90;;;;;;4857475;29;20205;-46
2023/02/02 19:37:24;;;;;;;28.90;26.40;;;3.40;99.90;;;;;;4857672;29;20538;-47
2023/02/02 19:40:13;;;;;;;28.23;25.73;;;3.40;99.90;;;;;;4857728;29;20654;-45
2023/02/02 19:43:11;;;;;;;23.90;22.00;;;3.30;99.90;;;;;;4856948;29;20951;-46
2023/02/02 19:45:38;;;;;;;22.90;21.23;;;3.20;99.90;;;;;;4842618;29;20594;-49
2023/02/02 19:48:18;;;;;;;30.58;27.98;;;3.20;99.90;;;;;;4857533;29;20191;-46
2023/02/02 19:50:45;;;;;;;26.00;23.73;;;3.10;99.90;;;;;;4857612;29;20642;-48
2023/02/02 19:53:23;;;;;;;22.73;20.83;;;3.10;99.90;;;;;;4856708;29;20198;-50
2023/02/02 19:55:50;;;;;;;25.73;23.35;;;3.10;99.90;;;;;;4857834;29;20192;-44
2023/02/02 19:58:22;;;;;;;22.65;20.75;;;3.20;99.90;;;;;;4860834;29;20184;-47
2023/02/02 20:00:54;;;;;;;26.15;23.65;;;3.20;99.90;;;;;;4865137;29;20958;-46
2023/02/02 20:03:24;;;;;;;24.77;22.27;;;3.20;99.90;;;;;;4855973;29;20211;-48
2023/02/02 20:05:51;;;;;;;25.95;23.40;;;3.20;99.90;;;;;;4856143;29;20252;-47
2023/02/02 20:08:22;;;;;;;27.50;24.85;;;3.20;99.90;;;;;;4853815;29;20642;-49
2023/02/02 20:10:49;;;;;;;26.88;24.20;;;3.20;99.90;;;;;;4856030;29;20551;-49
2023/02/02 20:13:20;;;;;;;28.20;25.30;;;3.20;99.90;;;;;;4855449;29;20191;-47
2023/02/02 20:15:47;;;;;;;27.10;24.60;;;3.20;99.90;;;;;;4855512;29;20261;-48
2023/02/02 20:18:18;;;;;;;25.92;23.30;;;3.10;99.90;;;;;;4854558;29;20210;-48
2023/02/02 20:20:47;;;;;;;30.27;27.15;;;3.10;99.90;;;;;;4855405;29;20303;-47
2023/02/02 20:23:34;;;;;;;33.15;28.10;;;3.10;99.90;;;;;;4856062;29;20215;-49
2023/02/02 20:26:06;;;;;;;29.83;26.00;;;3.10;99.90;;;;;;4855468;29;20230;-48
2023/02/02 20:28:42;;;;;;;32.42;27.70;;;3.10;99.90;;;;;;4855480;29;20194;-46
2023/02/02 20:31:12;;;;;;;30.60;27.40;;;3.10;99.90;;;;;;4855492;29;20551;-49
2023/02/02 20:33:40;;;;;;;40.13;32.40;;;3.10;99.90;;;;;;4855167;29;20651;-48
2023/02/02 20:36:24;;;;;;;28.52;25.45;;;3.10;99.90;;;;;;4855866;29;20193;-51
2023/02/02 20:38:49;;;;;;;26.75;24.15;;;3.10;99.90;;;;;;4856003;29;20901;-50
2023/02/02 20:41:17;;;;;;;26.80;24.43;;;3.10;99.90;;;;;;4856557;29;20336;-45
2023/02/02 20:43:45;;;;;;;26.73;24.42;;;3.20;99.90;;;;;;4856062;29;20216;-48
2023/02/02 20:46:11;;;;;;;25.77;23.58;;;3.20;99.90;;;;;;4855998;29;20187;-49
2023/02/02 20:48:37;;;;;;;25.25;23.05;;;3.30;99.90;;;;;;4856274;29;20218;-45
2023/02/02 20:51:04;;;;;;;23.67;21.37;;;3.30;99.90;;;;;;4857099;29;20230;-44
2023/02/02 20:53:29;;;;;;;23.63;21.50;;;3.40;99.90;;;;;;4856875;29;20196;-46
2023/02/02 20:55:58;;;;;;;22.70;20.40;;;3.40;99.90;;;;;;4856516;29;20296;-47
2023/02/02 20:58:24;;;;;;;24.65;22.55;;;3.50;99.90;;;;;;4870635;29;20197;-46
2023/02/02 21:00:50;;;;;;;23.23;20.97;;;3.50;99.90;;;;;;4856358;29;20881;-47
2023/02/02 21:03:15;;;;;;;21.90;20.00;;;3.50;99.90;;;;;;4853915;29;20577;-46
2023/02/02 21:05:41;;;;;;;20.73;19.20;;;3.60;99.90;;;;;;4847962;29;20459;-44
2023/02/02 21:08:07;;;;;;;20.90;19.20;;;3.60;99.90;;;;;;4856065;29;20484;-45
2023/02/02 21:10:33;;;;;;;20.33;18.73;;;3.60;99.90;;;;;;4856989;29;20189;-46
2023/02/02 21:12:59;;;;;;;21.02;19.40;;;3.70;99.90;;;;;;4856847;29;20189;-44
2023/02/02 21:15:25;;;;;;;20.30;18.30;;;3.70;99.90;;;;;;4848887;29;20258;-46
2023/02/02 21:17:51;;;;;;;19.98;18.15;;;3.70;99.90;;;;;;4856900;29;20181;-45
2023/02/02 21:20:16;;;;;;;20.50;18.50;;;3.70;99.90;;;;;;4857055;29;20176;-47
2023/02/02 21:22:42;;;;;;;20.33;18.67;;;3.70;99.90;;;;;;4856797;29;20421;-45
2023/02/02 21:25:09;;;;;;;20.10;18.70;;;3.70;99.90;;;;;;4856252;29;20575;-45
2023/02/02 21:27:34;;;;;;;17.35;16.05;;;3.80;99.90;;;;;;4857108;29;20184;-45
2023/02/02 21:30:00;;;;;;;18.60;17.03;;;3.80;99.90;;;;;;4856704;29;20192;-47
2023/02/02 21:32:26;;;;;;;19.80;17.93;;;3.80;99.90;;;;;;4857148;29;20416;-45
2023/02/02 21:34:51;;;;;;;19.20;17.50;;;3.80;99.90;;;;;;4855879;29;20208;-48
2023/02/02 21:37:17;;;;;;;19.50;17.60;;;3.80;99.90;;;;;;4855538;29;20503;-45
2023/02/02 21:39:48;;;;;;;19.07;17.47;;;3.80;99.90;;;;;;4856714;29;20186;-45
2023/02/02 21:42:16;;;;;;;18.83;17.40;;;3.80;99.90;;;;;;4858430;29;20289;-45
2023/02/02 21:44:53;;;;;;;19.70;18.15;;;3.80;99.90;;;;;;4866195;29;20205;-48
2023/02/02 21:47:31;;;;;;;19.02;17.52;;;3.80;99.90;;;;;;4855574;29;20546;-48
2023/02/02 21:50:01;;;;;;;19.83;17.90;;;3.80;99.90;;;;;;4856679;29;20302;-50
2023/02/02 21:52:32;;;;;;;20.23;18.40;;;3.70;99.90;;;;;;4856559;29;20221;-49
2023/02/02 21:54:59;;;;;;;19.55;17.85;;;3.70;99.90;;;;;;4855298;29;20690;-47
2023/02/02 21:57:35;;;;;;;19.70;18.13;;;3.70;99.90;;;;;;4856659;29;20278;-44
2023/02/02 22:00:21;;;;;;;18.75;17.20;;;3.60;99.90;;;;;;4856185;29;20211;-46
2023/02/02 22:02:49;;;;;;;17.48;16.27;;;3.60;99.90;;;;;;4855438;29;20561;-46
2023/02/02 22:05:32;;;;;;;18.52;17.13;;;3.60;99.90;;;;;;4855099;29;20572;-47
2023/02/02 22:07:58;;;;;;;17.70;16.40;;;3.50;99.90;;;;;;4859782;29;20254;-47
2023/02/02 22:10:35;;;;;;;17.95;16.55;;;3.50;99.90;;;;;;4854968;29;20207;-47
2023/02/02 22:13:21;;;;;;;18.75;17.35;;;3.50;99.90;;;;;;4856428;29;20177;-45
2023/02/02 22:15:49;;;;;;;20.88;19.15;;;3.40;99.90;;;;;;4846097;29;20308;-45
2023/02/02 22:18:25;;;;;;;21.65;19.65;;;3.40;99.90;;;;;;4859180;29;20260;-46
2023/02/02 22:20:55;;;;;;;20.70;19.00;;;3.40;99.90;;;;;;4858014;29;20192;-46
2023/02/02 22:23:23;;;;;;;20.33;18.55;;;3.30;99.90;;;;;;4858659;29;20268;-47
2023/02/02 22:25:52;;;;;;;20.35;18.52;;;3.30;99.90;;;;;;4858898;29;20220;-45
2023/02/02 22:28:27;;;;;;;19.25;17.50;;;3.30;99.90;;;;;;4859375;29;20223;-46
2023/02/02 22:30:54;;;;;;;19.35;17.75;;;3.30;99.90;;;;;;4859405;29;20188;-49
2023/02/02 22:33:21;;;;;;;19.40;17.80;;;3.20;99.90;;;;;;4858546;29;20197;-45
2023/02/02 22:35:47;;;;;;;23.05;20.92;;;3.30;99.90;;;;;;4859094;29;20200;-48
2023/02/02 22:38:18;;;;;;;22.15;20.23;;;3.30;99.90;;;;;;4859350;29;20191;-51
2023/02/02 22:40:45;;;;;;;21.83;19.92;;;3.30;99.90;;;;;;4859047;29;20190;-46
2023/02/02 22:43:12;;;;;;;21.67;19.65;;;3.40;99.90;;;;;;4863432;29;20184;-46
2023/02/02 22:45:38;;;;;;;20.15;18.42;;;3.40;99.90;;;;;;4858509;29;20864;-49
2023/02/02 22:48:04;;;;;;;20.05;17.10;;;3.40;99.90;;;;;;4859152;29;20268;-46
2023/02/02 22:50:30;;;;;;;21.60;19.33;;;3.50;99.90;;;;;;4859120;29;20716;-47
2023/02/02 22:52:57;;;;;;;20.30;18.40;;;3.50;99.90;;;;;;4857524;29;20266;-47
2023/02/02 22:55:23;;;;;;;21.40;19.40;;;3.50;99.90;;;;;;4858413;29;20592;-44
2023/02/02 22:57:48;;;;;;;20.63;19.03;;;3.60;99.90;;;;;;4859212;29;20260;-44
2023/02/02 23:00:20;;;;;;;22.20;20.27;;;3.60;99.90;;;;;;4859045;29;20428;-48
2023/02/02 23:02:46;;;;;;;22.10;20.05;;;3.60;99.90;;;;;;4858437;29;20192;-46
2023/02/02 23:05:14;;;;;;;20.97;19.23;;;3.60;99.90;;;;;;4858151;29;20226;-43
2023/02/02 23:07:42;;;;;;;21.65;19.85;;;3.70;99.90;;;;;;4858485;29;20252;-43
2023/02/02 23:10:10;;;;;;;21.50;19.80;;;3.70;99.90;;;;;;4859029;29;20186;-43
2023/02/02 23:12:35;;;;;;;21.65;19.42;;;3.70;99.90;;;;;;4858779;29;20581;-43
2023/02/02 23:15:01;;;;;;;21.80;19.60;;;3.70;99.90;;;;;;4858198;29;20195;-45
2023/02/02 23:17:27;;;;;;;20.90;18.93;;;3.60;99.90;;;;;;4858951;29;20649;-43
2023/02/02 23:19:52;;;;;;;20.77;18.87;;;3.60;99.90;;;;;;4858410;29;20180;-45
2023/02/02 23:22:18;;;;;;;21.90;19.80;;;3.60;99.90;;;;;;4858754;29;20202;-42
2023/02/02 23:24:43;;;;;;;20.10;18.00;;;3.60;99.90;;;;;;4857903;29;20924;-44
2023/02/02 23:27:11;;;;;;;19.37;17.60;;;3.60;99.90;;;;;;4855210;29;20260;-43
2023/02/02 23:29:37;;;;;;;19.85;17.80;;;3.60;99.90;;;;;;4858653;29;20193;-45
2023/02/02 23:32:03;;;;;;;20.23;18.30;;;3.60;99.90;;;;;;4858282;29;20275;-42
2023/02/02 23:34:29;;;;;;;19.63;17.83;;;3.60;99.90;;;;;;4857449;29;20462;-45
2023/02/02 23:36:54;;;;;;;19.03;17.43;;;3.60;99.90;;;;;;4858424;29;20191;-50
2023/02/02 23:39:20;;;;;;;19.47;17.57;;;3.60;99.90;;;;;;4858152;29;20189;-42
2023/02/02 23:41:45;;;;;;;19.50;18.00;;;3.60;99.90;;;;;;4858457;29;20187;-42
2023/02/02 23:44:11;;;;;;;20.30;18.50;;;3.70;99.90;;;;;;4857265;29;20209;-42
2023/02/02 23:46:38;;;;;;;21.40;19.37;;;3.70;99.90;;;;;;4858209;29;20437;-45
2023/02/02 23:49:04;;;;;;;20.88;19.00;;;3.70;99.90;;;;;;4857860;29;20185;-44
2023/02/02 23:51:30;;;;;;;20.27;18.55;;;3.70;99.90;;;;;;4867046;29;20652;-43
2023/02/02 23:53:57;;;;;;;19.65;17.92;;;3.70;99.90;;;;;;4857065;29;20189;-45
2023/02/02 23:56:23;;;;;;;19.65;17.85;;;3.70;99.90;;;;;;4857216;29;20285;-42
2023/02/02 23:58:48;;;;;;;19.88;18.10;;;3.70;99.90;;;;;;4857431;29;20190;-47
